createdAt,value
2018-07-30T00:00:37.748Z,25.15
2018-07-30T00:01:37.779Z,25.09
2018-07-30T00:02:37.807Z,25.11
2018-07-30T00:03:37.835Z,25.09
2018-07-30T00:04:37.863Z,25.11
2018-07-30T00:05:37.888Z,25.09
2018-07-30T00:06:37.920Z,25.15
2018-07-30T00:07:37.947Z,25.09
2018-07-30T00:08:37.974Z,25.11
2018-07-30T00:09:38.005Z,25.11
2018-07-30T00:10:38.033Z,25.08
2018-07-30T00:11:38.061Z,25.05
2018-07-30T00:12:38.087Z,25.07
2018-07-30T00:13:38.117Z,25.07
2018-07-30T00:14:38.142Z,25.11
2018-07-30T00:15:38.172Z,25.01
2018-07-30T00:16:38.202Z,25.02
2018-07-30T00:17:38.227Z,25.02
2018-07-30T00:18:38.256Z,25.00
2018-07-30T00:19:38.287Z,24.96
2018-07-30T00:20:38.315Z,25.01
2018-07-30T00:21:38.342Z,25.01
2018-07-30T00:22:38.372Z,25.09
2018-07-30T00:23:38.396Z,25.02
2018-07-30T00:24:38.426Z,25.05
2018-07-30T00:25:38.456Z,25.01
2018-07-30T00:26:38.481Z,24.97
2018-07-30T00:27:38.512Z,24.96
2018-07-30T00:28:38.539Z,24.97
2018-07-30T00:29:38.567Z,25.05
2018-07-30T00:30:38.595Z,25.00
2018-07-30T00:31:38.623Z,25.00
2018-07-30T00:32:38.652Z,25.09
2018-07-30T00:33:38.679Z,25.09
2018-07-30T00:34:38.707Z,25.04
2018-07-30T00:35:38.736Z,25.02
2018-07-30T00:36:38.762Z,25.01
2018-07-30T00:37:38.792Z,25.00
2018-07-30T00:38:38.819Z,25.04
2018-07-30T00:39:38.847Z,25.02
2018-07-30T00:40:38.876Z,25.00
2018-07-30T00:41:38.905Z,24.94
2018-07-30T00:42:38.931Z,24.94
2018-07-30T00:43:38.961Z,24.89
2018-07-30T00:44:38.988Z,24.93
2018-07-30T00:45:39.015Z,24.93
2018-07-30T00:46:39.044Z,24.87
2018-07-30T00:47:39.073Z,24.90
2018-07-30T00:48:39.102Z,24.86
2018-07-30T00:49:39.127Z,24.90
2018-07-30T00:50:39.156Z,24.89
2018-07-30T00:51:39.184Z,24.92
2018-07-30T00:52:39.215Z,24.89
2018-07-30T00:53:39.242Z,24.89
2018-07-30T00:54:39.269Z,24.85
2018-07-30T00:55:39.299Z,24.82
2018-07-30T00:56:39.327Z,24.86
2018-07-30T00:57:39.355Z,24.85
2018-07-30T00:58:39.381Z,24.90
2018-07-30T00:59:39.412Z,24.87
2018-07-30T01:00:39.439Z,24.87
2018-07-30T01:01:39.465Z,24.90
2018-07-30T01:02:39.494Z,24.90
2018-07-30T01:03:39.523Z,24.93
2018-07-30T01:04:39.551Z,24.90
2018-07-30T01:05:39.578Z,24.87
2018-07-30T01:06:39.607Z,24.93
2018-07-30T01:07:39.670Z,24.89
2018-07-30T01:08:39.663Z,24.93
2018-07-30T01:09:39.691Z,24.86
2018-07-30T01:10:39.728Z,24.85
2018-07-30T01:11:39.750Z,24.87
2018-07-30T01:12:39.775Z,24.83
2018-07-30T01:13:39.805Z,24.78
2018-07-30T01:14:39.831Z,24.75
2018-07-30T01:15:39.859Z,24.77
2018-07-30T01:16:39.888Z,24.78
2018-07-30T01:17:39.918Z,24.67
2018-07-30T01:18:39.945Z,24.80
2018-07-30T01:19:39.974Z,24.67
2018-07-30T01:20:40.005Z,24.67
2018-07-30T01:21:40.081Z,24.80
2018-07-30T01:22:40.057Z,24.70
2018-07-30T01:23:40.094Z,24.63
2018-07-30T01:24:40.113Z,24.66
2018-07-30T01:25:40.139Z,24.66
2018-07-30T01:26:40.168Z,24.66
2018-07-30T01:27:40.196Z,24.64
2018-07-30T01:28:40.226Z,24.66
2018-07-30T01:29:40.252Z,24.69
2018-07-30T01:30:40.283Z,24.70
2018-07-30T01:31:40.309Z,24.64
2018-07-30T01:32:40.337Z,24.64
2018-07-30T01:33:40.367Z,24.70
2018-07-30T01:34:40.396Z,24.64
2018-07-30T01:35:40.424Z,24.61
2018-07-30T01:36:40.451Z,24.66
2018-07-30T01:37:40.478Z,24.70
2018-07-30T01:38:40.507Z,24.67
2018-07-30T01:39:40.533Z,24.56
2018-07-30T01:40:40.564Z,24.59
2018-07-30T01:41:40.589Z,24.58
2018-07-30T01:42:40.616Z,24.55
2018-07-30T01:43:40.648Z,24.56
2018-07-30T01:44:40.676Z,24.63
2018-07-30T01:45:40.701Z,24.55
2018-07-30T01:46:40.733Z,24.58
2018-07-30T01:47:40.761Z,24.61
2018-07-30T01:48:40.786Z,24.52
2018-07-30T01:49:40.812Z,24.46
2018-07-30T01:50:40.841Z,24.52
2018-07-30T01:51:40.869Z,24.49
2018-07-30T01:52:40.904Z,24.48
2018-07-30T01:53:40.927Z,24.45
2018-07-30T01:54:40.953Z,24.37
2018-07-30T01:55:40.985Z,24.48
2018-07-30T01:56:41.009Z,24.45
2018-07-30T01:57:41.039Z,24.55
2018-07-30T01:58:41.069Z,24.49
2018-07-30T01:59:41.099Z,24.48
2018-07-30T02:00:41.122Z,24.44
2018-07-30T02:01:41.151Z,24.37
2018-07-30T02:02:41.176Z,24.44
2018-07-30T02:03:41.205Z,24.45
2018-07-30T02:04:41.235Z,24.32
2018-07-30T02:05:41.263Z,24.40
2018-07-30T02:06:41.289Z,24.44
2018-07-30T02:07:41.320Z,24.39
2018-07-30T02:08:41.347Z,24.44
2018-07-30T02:09:41.374Z,24.34
2018-07-30T02:10:41.401Z,24.34
2018-07-30T02:11:41.429Z,24.34
2018-07-30T02:12:41.462Z,24.36
2018-07-30T02:13:41.484Z,24.34
2018-07-30T02:14:41.512Z,24.34
2018-07-30T02:15:41.542Z,24.37
2018-07-30T02:16:41.569Z,24.30
2018-07-30T02:17:41.598Z,24.24
2018-07-30T02:18:41.627Z,24.22
2018-07-30T02:19:41.657Z,24.14
2018-07-30T02:20:41.687Z,24.14
2018-07-30T02:21:41.707Z,24.18
2018-07-30T02:22:41.735Z,24.09
2018-07-30T02:23:41.763Z,24.08
2018-07-30T02:24:41.792Z,24.14
2018-07-30T02:25:41.827Z,24.09
2018-07-30T02:26:41.888Z,24.08
2018-07-30T02:27:41.877Z,24.09
2018-07-30T02:28:41.903Z,24.12
2018-07-30T02:29:41.930Z,24.09
2018-07-30T02:30:41.959Z,24.08
2018-07-30T02:31:41.989Z,24.09
2018-07-30T02:32:42.018Z,24.11
2018-07-30T02:33:42.044Z,24.07
2018-07-30T02:34:42.077Z,24.08
2018-07-30T02:35:42.100Z,24.12
2018-07-30T02:36:42.135Z,24.11
2018-07-30T02:37:42.157Z,24.09
2018-07-30T02:38:42.183Z,24.11
2018-07-30T02:39:42.211Z,24.11
2018-07-30T02:40:42.246Z,24.11
2018-07-30T02:41:42.268Z,24.14
2018-07-30T02:42:42.292Z,24.07
2018-07-30T02:43:42.323Z,24.11
2018-07-30T02:44:42.350Z,23.96
2018-07-30T02:45:42.376Z,23.97
2018-07-30T02:46:42.408Z,23.99
2018-07-30T02:47:42.432Z,23.96
2018-07-30T02:48:42.463Z,23.97
2018-07-30T02:49:42.486Z,23.99
2018-07-30T02:50:42.515Z,23.92
2018-07-30T02:51:42.558Z,23.87
2018-07-30T02:52:42.576Z,23.81
2018-07-30T02:53:42.600Z,23.77
2018-07-30T02:54:42.627Z,23.84
2018-07-30T02:55:42.654Z,23.79
2018-07-30T02:56:42.683Z,23.74
2018-07-30T02:57:42.796Z,23.79
2018-07-30T02:58:42.739Z,23.78
2018-07-30T02:59:42.767Z,23.81
2018-07-30T03:00:42.793Z,23.64
2018-07-30T03:01:42.821Z,23.66
2018-07-30T03:02:42.850Z,23.64
2018-07-30T03:03:42.879Z,23.60
2018-07-30T03:04:42.905Z,23.56
2018-07-30T03:05:42.930Z,23.60
2018-07-30T03:06:42.960Z,23.59
2018-07-30T03:07:42.986Z,23.60
2018-07-30T03:08:43.014Z,23.59
2018-07-30T03:09:43.044Z,23.60
2018-07-30T03:10:43.072Z,23.55
2018-07-30T03:11:43.099Z,23.59
2018-07-30T03:12:43.128Z,23.48
2018-07-30T03:13:43.153Z,23.55
2018-07-30T03:14:43.181Z,23.60
2018-07-30T03:15:43.208Z,23.60
2018-07-30T03:16:43.236Z,23.53
2018-07-30T03:17:43.265Z,23.56
2018-07-30T03:18:43.292Z,23.50
2018-07-30T03:19:43.320Z,23.48
2018-07-30T03:20:43.345Z,23.47
2018-07-30T03:21:43.371Z,23.48
2018-07-30T03:22:43.404Z,23.50
2018-07-30T03:23:43.429Z,23.48
2018-07-30T03:24:43.460Z,23.47
2018-07-30T03:25:43.482Z,23.44
2018-07-30T03:26:43.512Z,23.44
2018-07-30T03:27:43.543Z,23.41
2018-07-30T03:28:43.585Z,23.44
2018-07-30T03:29:43.594Z,23.47
2018-07-30T03:30:43.622Z,23.38
2018-07-30T03:31:43.651Z,23.48
2018-07-30T03:32:43.678Z,23.42
2018-07-30T03:33:43.703Z,23.42
2018-07-30T03:34:43.732Z,23.42
2018-07-30T03:35:43.760Z,23.35
2018-07-30T03:36:43.788Z,23.35
2018-07-30T03:37:43.814Z,23.37
2018-07-30T03:38:43.842Z,23.26
2018-07-30T03:39:43.868Z,23.32
2018-07-30T03:40:43.894Z,23.37
2018-07-30T03:41:43.924Z,23.29
2018-07-30T03:42:43.951Z,23.32
2018-07-30T03:43:43.976Z,23.25
2018-07-30T03:44:44.006Z,23.16
2018-07-30T03:45:44.033Z,23.21
2018-07-30T03:46:44.063Z,23.21
2018-07-30T03:47:44.086Z,23.22
2018-07-30T03:48:44.122Z,23.09
2018-07-30T03:49:44.141Z,23.07
2018-07-30T03:50:44.169Z,23.15
2018-07-30T03:51:44.197Z,23.18
2018-07-30T03:52:44.226Z,23.19
2018-07-30T03:53:44.253Z,23.16
2018-07-30T03:54:44.339Z,23.16
2018-07-30T03:55:44.304Z,23.16
2018-07-30T03:56:44.333Z,23.18
2018-07-30T03:57:44.361Z,23.15
2018-07-30T03:58:44.386Z,23.19
2018-07-30T03:59:44.416Z,23.15
2018-07-30T04:00:44.444Z,23.21
2018-07-30T04:01:44.470Z,23.18
2018-07-30T04:02:44.497Z,23.21
2018-07-30T04:03:44.522Z,23.22
2018-07-30T04:04:44.553Z,23.24
2018-07-30T04:05:44.630Z,23.22
2018-07-30T04:06:44.608Z,23.25
2018-07-30T04:07:44.674Z,23.28
2018-07-30T04:08:44.660Z,23.26
2018-07-30T04:09:44.689Z,23.29
2018-07-30T04:10:44.717Z,23.28
2018-07-30T04:11:44.740Z,23.28
2018-07-30T04:12:44.805Z,23.21
2018-07-30T04:13:44.799Z,23.21
2018-07-30T04:14:44.832Z,23.24
2018-07-30T04:15:44.850Z,23.19
2018-07-30T04:16:44.878Z,23.24
2018-07-30T04:17:44.906Z,23.26
2018-07-30T04:18:44.934Z,23.29
2018-07-30T04:19:44.962Z,23.26
2018-07-30T04:20:44.986Z,23.32
2018-07-30T04:21:45.016Z,23.28
2018-07-30T04:22:45.041Z,23.42
2018-07-30T04:23:45.068Z,23.38
2018-07-30T04:24:45.099Z,23.40
2018-07-30T04:25:45.129Z,23.42
2018-07-30T04:26:45.152Z,23.47
2018-07-30T04:27:45.180Z,23.38
2018-07-30T04:28:45.208Z,23.53
2018-07-30T04:29:45.233Z,23.48
2018-07-30T04:30:45.303Z,23.44
2018-07-30T04:31:45.291Z,23.45
2018-07-30T04:32:45.314Z,23.42
2018-07-30T04:33:45.340Z,23.48
2018-07-30T04:34:45.368Z,23.48
2018-07-30T04:35:45.396Z,23.56
2018-07-30T04:36:45.426Z,23.56
2018-07-30T04:37:45.450Z,23.63
2018-07-30T04:38:45.479Z,23.55
2018-07-30T04:39:45.507Z,23.56
2018-07-30T04:40:45.535Z,23.59
2018-07-30T04:41:45.563Z,23.56
2018-07-30T04:42:45.587Z,23.63
2018-07-30T04:43:45.679Z,23.57
2018-07-30T04:44:45.642Z,23.57
2018-07-30T04:45:45.668Z,23.57
2018-07-30T04:46:45.696Z,23.53
2018-07-30T04:47:45.726Z,23.64
2018-07-30T04:48:45.755Z,23.60
2018-07-30T04:49:45.778Z,23.60
2018-07-30T04:50:45.809Z,23.59
2018-07-30T04:51:45.841Z,23.59
2018-07-30T04:52:45.864Z,23.60
2018-07-30T04:53:45.889Z,23.66
2018-07-30T04:54:45.919Z,23.59
2018-07-30T04:55:45.944Z,23.55
2018-07-30T04:56:45.975Z,23.45
2018-07-30T04:57:46.003Z,23.52
2018-07-30T04:58:46.029Z,23.66
2018-07-30T04:59:46.057Z,23.60
2018-07-30T05:00:46.085Z,23.63
2018-07-30T05:01:46.111Z,23.56
2018-07-30T05:02:46.140Z,23.59
2018-07-30T05:03:46.185Z,23.52
2018-07-30T05:04:46.191Z,23.47
2018-07-30T05:05:46.222Z,23.53
2018-07-30T05:06:46.246Z,23.59
2018-07-30T05:07:46.273Z,23.66
2018-07-30T05:08:46.302Z,23.81
2018-07-30T05:09:46.330Z,23.79
2018-07-30T05:10:46.358Z,23.78
2018-07-30T05:11:46.389Z,23.67
2018-07-30T05:12:46.414Z,23.77
2018-07-30T05:13:46.441Z,23.72
2018-07-30T05:14:46.466Z,23.81
2018-07-30T05:15:46.495Z,23.87
2018-07-30T05:16:46.521Z,23.84
2018-07-30T05:17:46.553Z,23.94
2018-07-30T05:18:46.576Z,24.00
2018-07-30T05:19:46.607Z,24.21
2018-07-30T05:20:46.635Z,24.29
2018-07-30T05:21:46.663Z,24.27
2018-07-30T05:22:46.689Z,24.14
2018-07-30T05:23:46.716Z,24.24
2018-07-30T05:24:46.743Z,24.24
2018-07-30T05:25:46.772Z,24.37
2018-07-30T05:26:46.798Z,24.32
2018-07-30T05:27:46.825Z,24.34
2018-07-30T05:28:46.853Z,24.33
2018-07-30T05:29:46.882Z,24.34
2018-07-30T05:30:46.907Z,24.22
2018-07-30T05:31:47.088Z,24.07
2018-07-30T05:32:46.964Z,24.07
2018-07-30T05:33:46.993Z,24.00
2018-07-30T05:34:47.023Z,23.93
2018-07-30T05:35:47.047Z,23.96
2018-07-30T05:36:47.077Z,23.94
2018-07-30T05:37:47.109Z,24.07
2018-07-30T05:38:47.130Z,24.08
2018-07-30T05:39:47.161Z,24.21
2018-07-30T05:40:47.187Z,24.32
2018-07-30T05:41:47.218Z,24.44
2018-07-30T05:42:47.268Z,24.77
2018-07-30T05:43:47.278Z,25.00
2018-07-30T05:44:47.301Z,25.07
2018-07-30T05:45:47.328Z,24.94
2018-07-30T05:46:47.354Z,24.83
2018-07-30T05:47:47.383Z,24.80
2018-07-30T05:48:47.413Z,25.00
2018-07-30T05:49:47.439Z,25.27
2018-07-30T05:50:47.466Z,25.33
2018-07-30T05:51:47.497Z,25.57
2018-07-30T05:52:47.522Z,25.76
2018-07-30T05:53:47.553Z,26.00
2018-07-30T05:54:47.580Z,26.09
2018-07-30T05:55:47.609Z,26.22
2018-07-30T05:56:47.636Z,26.31
2018-07-30T05:57:47.663Z,26.41
2018-07-30T05:58:47.695Z,26.64
2018-07-30T05:59:47.755Z,26.69
2018-07-30T06:00:47.753Z,26.84
2018-07-30T06:01:47.781Z,27.04
2018-07-30T06:02:47.810Z,27.23
2018-07-30T06:03:47.836Z,27.41
2018-07-30T06:04:47.866Z,27.57
2018-07-30T06:05:47.896Z,27.71
2018-07-30T06:06:47.926Z,27.68
2018-07-30T06:07:47.957Z,27.80
2018-07-30T06:08:47.983Z,27.90
2018-07-30T06:09:48.013Z,27.94
2018-07-30T06:10:48.041Z,28.03
2018-07-30T06:11:48.074Z,28.20
2018-07-30T06:12:48.104Z,28.16
2018-07-30T06:13:48.243Z,28.26
2018-07-30T06:14:48.164Z,28.31
2018-07-30T06:15:48.191Z,28.39
2018-07-30T06:16:48.225Z,28.41
2018-07-30T06:17:48.251Z,28.43
2018-07-30T06:18:48.282Z,28.38
2018-07-30T06:19:48.312Z,28.30
2018-07-30T06:20:48.357Z,27.76
2018-07-30T06:21:48.376Z,27.61
2018-07-30T06:22:48.405Z,27.23
2018-07-30T06:23:48.437Z,27.05
2018-07-30T06:24:48.466Z,27.27
2018-07-30T06:25:48.498Z,27.72
2018-07-30T06:26:48.530Z,27.55
2018-07-30T06:27:48.558Z,27.34
2018-07-30T06:28:48.671Z,27.08
2018-07-30T06:29:48.619Z,27.52
2018-07-30T06:30:48.651Z,27.89
2018-07-30T06:31:48.689Z,28.27
2018-07-30T06:32:48.717Z,28.42
2018-07-30T06:33:48.747Z,28.54
2018-07-30T06:34:48.778Z,28.78
2018-07-30T06:35:48.808Z,28.80
2018-07-30T06:36:48.837Z,28.83
2018-07-30T06:37:48.870Z,28.70
2018-07-30T06:38:48.903Z,29.10
2018-07-30T06:39:48.932Z,29.03
2018-07-30T06:40:48.962Z,29.23
2018-07-30T06:41:48.993Z,29.47
2018-07-30T06:42:49.025Z,29.50
2018-07-30T06:43:49.056Z,29.61
2018-07-30T06:44:49.090Z,29.65
2018-07-30T06:45:49.122Z,29.72
2018-07-30T06:46:49.154Z,29.82
2018-07-30T06:47:49.240Z,29.79
2018-07-30T06:48:49.217Z,29.79
2018-07-30T06:49:49.247Z,29.87
2018-07-30T06:50:49.280Z,29.75
2018-07-30T06:51:49.316Z,29.77
2018-07-30T06:52:49.347Z,30.02
2018-07-30T06:53:49.377Z,30.11
2018-07-30T06:54:49.411Z,30.29
2018-07-30T06:55:49.489Z,30.48
2018-07-30T06:56:49.474Z,30.35
2018-07-30T06:57:49.517Z,30.56
2018-07-30T06:58:49.539Z,30.86
2018-07-30T06:59:49.572Z,30.96
2018-07-30T07:00:49.608Z,30.94
2018-07-30T07:01:49.641Z,30.57
2018-07-30T07:02:49.673Z,30.63
2018-07-30T07:03:49.707Z,30.82
2018-07-30T07:04:49.745Z,31.03
2018-07-30T07:05:49.779Z,30.81
2018-07-30T07:06:49.804Z,30.91
2018-07-30T07:07:49.838Z,31.23
2018-07-30T07:08:49.873Z,30.69
2018-07-30T07:09:49.907Z,30.70
2018-07-30T07:10:49.952Z,30.35
2018-07-30T07:11:49.974Z,30.25
2018-07-30T07:12:50.006Z,30.73
2018-07-30T07:13:50.041Z,31.15
2018-07-30T07:14:50.078Z,31.60
2018-07-30T07:15:50.112Z,31.98
2018-07-30T07:16:50.185Z,31.70
2018-07-30T07:17:50.235Z,31.90
2018-07-30T07:18:50.234Z,31.62
2018-07-30T07:19:50.243Z,31.80
2018-07-30T07:20:50.330Z,31.67
2018-07-30T07:21:50.330Z,31.80
2018-07-30T07:22:50.349Z,32.01
2018-07-30T07:23:50.382Z,32.08
2018-07-30T07:24:50.417Z,32.09
2018-07-30T07:25:50.450Z,31.75
2018-07-30T07:26:50.493Z,31.93
2018-07-30T07:27:50.538Z,31.98
2018-07-30T07:28:50.553Z,32.05
2018-07-30T07:29:50.591Z,31.93
2018-07-30T07:30:50.622Z,31.86
2018-07-30T07:31:50.660Z,31.82
2018-07-30T07:32:50.698Z,31.58
2018-07-30T07:33:50.728Z,31.41
2018-07-30T07:34:50.809Z,31.47
2018-07-30T07:35:50.797Z,31.40
2018-07-30T07:36:50.834Z,31.95
2018-07-30T07:37:50.870Z,32.34
2018-07-30T07:38:50.903Z,32.15
2018-07-30T07:39:50.939Z,32.37
2018-07-30T07:40:50.975Z,32.59
2018-07-30T07:41:51.006Z,32.71
2018-07-30T07:42:51.047Z,32.47
2018-07-30T07:43:51.077Z,32.54
2018-07-30T07:44:51.327Z,32.34
2018-07-30T07:45:51.149Z,32.24
2018-07-30T07:46:51.182Z,32.25
2018-07-30T07:47:51.219Z,32.42
2018-07-30T07:48:51.254Z,32.86
2018-07-30T07:49:51.293Z,33.05
2018-07-30T07:50:51.606Z,33.36
2018-07-30T07:51:51.362Z,33.63
2018-07-30T07:52:51.394Z,33.93
2018-07-30T07:53:51.434Z,33.52
2018-07-30T07:54:51.468Z,33.16
2018-07-30T07:55:51.507Z,33.16
2018-07-30T07:56:51.541Z,33.31
2018-07-30T07:58:54.238Z,32.81
2018-07-30T07:59:51.654Z,32.89
2018-07-30T08:00:55.331Z,33.36
2018-07-30T08:01:51.733Z,33.77
2018-07-30T08:02:52.086Z,33.83
2018-07-30T08:03:51.867Z,33.97
2018-07-30T08:04:51.842Z,33.97
2018-07-30T08:05:51.879Z,34.02
2018-07-30T08:06:51.916Z,34.40
2018-07-30T08:07:51.952Z,34.99
2018-07-30T08:08:51.985Z,34.41
2018-07-30T08:09:52.147Z,34.21
2018-07-30T08:10:52.097Z,33.73
2018-07-30T08:11:52.095Z,33.01
2018-07-30T08:12:52.129Z,32.90
2018-07-30T08:13:52.166Z,32.61
2018-07-30T08:14:52.202Z,32.38
2018-07-30T08:15:52.239Z,32.35
2018-07-30T08:16:52.275Z,32.27
2018-07-30T08:17:52.313Z,32.10
2018-07-30T08:18:52.349Z,31.98
2018-07-30T08:19:52.383Z,31.53
2018-07-30T08:20:52.424Z,31.38
2018-07-30T08:21:52.458Z,32.16
2018-07-30T08:22:52.490Z,32.91
2018-07-30T08:23:52.528Z,33.58
2018-07-30T08:24:52.565Z,34.15
2018-07-30T08:25:52.599Z,34.56
2018-07-30T08:26:52.633Z,34.87
2018-07-30T08:27:52.672Z,34.94
2018-07-30T08:28:52.708Z,35.18
2018-07-30T08:29:52.740Z,35.62
2018-07-30T08:30:54.202Z,35.65
2018-07-30T08:31:52.813Z,34.52
2018-07-30T08:32:52.908Z,34.69
2018-07-30T08:33:52.885Z,34.51
2018-07-30T08:34:52.925Z,34.36
2018-07-30T08:35:52.963Z,34.39
2018-07-30T08:36:52.995Z,34.17
2018-07-30T08:37:53.030Z,33.83
2018-07-30T08:38:53.067Z,32.86
2018-07-30T08:39:53.105Z,32.54
2018-07-30T08:40:53.140Z,32.50
2018-07-30T08:41:53.231Z,32.39
2018-07-30T08:42:53.265Z,32.61
2018-07-30T08:43:53.248Z,33.08
2018-07-30T08:44:53.285Z,32.89
2018-07-30T08:45:53.320Z,32.86
2018-07-30T08:46:53.358Z,32.83
2018-07-30T08:47:53.393Z,32.87
2018-07-30T08:48:53.447Z,32.74
2018-07-30T08:49:53.466Z,32.12
2018-07-30T08:50:53.503Z,31.88
2018-07-30T08:51:53.539Z,31.21
2018-07-30T08:52:53.574Z,30.84
2018-07-30T08:53:53.631Z,30.64
2018-07-30T08:54:53.645Z,30.59
2018-07-30T08:55:53.681Z,30.42
2018-07-30T08:56:53.717Z,31.15
2018-07-30T08:57:53.754Z,31.78
2018-07-30T08:58:53.783Z,32.76
2018-07-30T08:59:53.822Z,33.13
2018-07-30T09:00:53.858Z,33.96
2018-07-30T09:01:53.893Z,33.63
2018-07-30T09:02:53.925Z,34.19
2018-07-30T09:03:53.964Z,34.10
2018-07-30T09:04:53.996Z,34.32
2018-07-30T09:05:54.030Z,33.96
2018-07-30T09:06:54.066Z,33.44
2018-07-30T09:07:54.103Z,33.13
2018-07-30T09:08:54.139Z,33.46
2018-07-30T09:09:54.173Z,34.39
2018-07-30T09:10:54.208Z,33.84
2018-07-30T09:11:54.243Z,33.87
2018-07-30T09:12:54.402Z,34.36
2018-07-30T09:13:54.318Z,35.18
2018-07-30T09:14:54.347Z,35.45
2018-07-30T09:15:54.387Z,34.46
2018-07-30T09:16:54.420Z,34.02
2018-07-30T09:17:54.455Z,32.89
2018-07-30T09:18:54.489Z,32.65
2018-07-30T09:19:54.527Z,33.50
2018-07-30T09:20:54.563Z,33.85
2018-07-30T09:21:54.597Z,34.05
2018-07-30T09:22:54.634Z,34.02
2018-07-30T09:23:54.666Z,33.63
2018-07-30T09:24:54.702Z,34.51
2018-07-30T09:25:54.738Z,35.43
2018-07-30T09:26:54.803Z,35.84
2018-07-30T09:27:54.857Z,36.01
2018-07-30T09:28:54.844Z,36.36
2018-07-30T09:29:54.890Z,36.68
2018-07-30T09:30:54.918Z,36.83
2018-07-30T09:31:54.955Z,36.89
2018-07-30T09:32:55.135Z,36.97
2018-07-30T09:33:55.023Z,36.28
2018-07-30T09:34:55.062Z,36.28
2018-07-30T09:35:55.095Z,36.01
2018-07-30T09:36:55.133Z,35.40
2018-07-30T09:37:55.167Z,35.53
2018-07-30T09:38:55.204Z,34.61
2018-07-30T09:39:55.240Z,33.87
2018-07-30T09:40:55.280Z,33.78
2018-07-30T09:41:55.313Z,34.17
2018-07-30T09:42:55.352Z,34.66
2018-07-30T09:43:55.389Z,34.91
2018-07-30T09:44:55.527Z,34.66
2018-07-30T09:45:55.462Z,33.92
2018-07-30T09:46:55.496Z,34.17
2018-07-30T09:47:55.533Z,34.11
2018-07-30T09:48:55.569Z,34.11
2018-07-30T09:49:55.606Z,34.17
2018-07-30T09:50:55.644Z,34.32
2018-07-30T09:51:55.681Z,34.00
2018-07-30T09:52:55.716Z,33.99
2018-07-30T09:53:55.752Z,33.96
2018-07-30T09:54:55.791Z,34.12
2018-07-30T09:55:55.826Z,34.15
2018-07-30T09:56:55.862Z,34.67
2018-07-30T09:57:55.901Z,35.20
2018-07-30T09:58:55.936Z,35.87
2018-07-30T09:59:55.971Z,36.19
2018-07-30T10:00:56.013Z,35.08
2018-07-30T10:01:56.048Z,35.64
2018-07-30T10:02:56.081Z,35.31
2018-07-30T10:03:56.118Z,35.30
2018-07-30T10:04:56.156Z,36.08
2018-07-30T10:05:56.194Z,36.44
2018-07-30T10:06:56.228Z,37.00
2018-07-30T10:07:56.266Z,37.15
2018-07-30T10:08:56.303Z,37.18
2018-07-30T10:09:56.340Z,36.95
2018-07-30T10:10:56.379Z,36.74
2018-07-30T10:11:56.416Z,37.11
2018-07-30T10:12:56.453Z,37.48
2018-07-30T10:13:56.488Z,37.68
2018-07-30T10:14:56.530Z,37.87
2018-07-30T10:15:56.564Z,38.12
2018-07-30T10:16:56.601Z,38.21
2018-07-30T10:17:56.688Z,37.98
2018-07-30T10:18:56.676Z,37.66
2018-07-30T10:19:56.712Z,37.30
2018-07-30T10:20:56.747Z,37.42
2018-07-30T10:21:56.786Z,36.49
2018-07-30T10:22:56.824Z,36.21
2018-07-30T10:23:56.862Z,35.57
2018-07-30T10:24:56.898Z,34.69
2018-07-30T10:25:56.936Z,34.55
2018-07-30T10:26:56.972Z,34.89
2018-07-30T10:27:57.008Z,35.27
2018-07-30T10:28:57.050Z,35.50
2018-07-30T10:29:57.089Z,36.14
2018-07-30T10:30:57.123Z,36.89
2018-07-30T10:31:57.157Z,37.11
2018-07-30T10:32:57.223Z,36.92
2018-07-30T10:33:57.230Z,36.56
2018-07-30T10:34:57.274Z,36.15
2018-07-30T10:35:57.308Z,35.94
2018-07-30T10:36:57.343Z,35.72
2018-07-30T10:37:57.462Z,35.94
2018-07-30T10:38:57.420Z,36.37
2018-07-30T10:39:57.497Z,36.34
2018-07-30T10:40:57.495Z,37.07
2018-07-30T10:41:57.532Z,37.57
2018-07-30T10:42:57.566Z,37.39
2018-07-30T10:43:57.605Z,36.12
2018-07-30T10:44:57.643Z,35.20
2018-07-30T10:45:57.678Z,35.05
2018-07-30T10:46:57.745Z,35.16
2018-07-30T10:47:57.751Z,36.04
2018-07-30T10:48:57.792Z,36.30
2018-07-30T10:49:57.830Z,36.18
2018-07-30T10:50:57.862Z,35.64
2018-07-30T10:51:57.947Z,35.90
2018-07-30T10:52:57.939Z,36.28
2018-07-30T10:53:57.975Z,35.64
2018-07-30T10:54:58.012Z,35.15
2018-07-30T10:55:58.049Z,35.04
2018-07-30T10:56:58.084Z,34.97
2018-07-30T10:57:58.119Z,34.72
2018-07-30T10:58:58.158Z,34.19
2018-07-30T10:59:58.195Z,34.00
2018-07-30T11:00:58.252Z,33.44
2018-07-30T11:01:58.264Z,33.24
2018-07-30T11:02:58.304Z,33.12
2018-07-30T11:03:58.339Z,32.72
2018-07-30T11:04:58.377Z,32.64
2018-07-30T11:05:58.408Z,32.28
2018-07-30T11:06:58.446Z,32.23
2018-07-30T11:07:58.490Z,32.12
2018-07-30T11:08:58.519Z,32.16
2018-07-30T11:09:58.554Z,32.50
2018-07-30T11:10:58.589Z,34.05
2018-07-30T11:11:58.622Z,35.26
2018-07-30T11:12:58.660Z,36.26
2018-07-30T11:13:58.696Z,36.99
2018-07-30T11:14:58.728Z,37.27
2018-07-30T11:15:58.768Z,37.79
2018-07-30T11:16:58.802Z,38.18
2018-07-30T11:17:58.837Z,38.35
2018-07-30T11:18:58.873Z,38.58
2018-07-30T11:19:58.905Z,38.73
2018-07-30T11:20:58.943Z,38.49
2018-07-30T11:21:58.978Z,37.76
2018-07-30T11:22:59.013Z,37.00
2018-07-30T11:23:59.049Z,36.63
2018-07-30T11:24:59.088Z,36.18
2018-07-30T11:25:59.123Z,36.90
2018-07-30T11:26:59.159Z,37.53
2018-07-30T11:27:59.325Z,36.90
2018-07-30T11:28:59.229Z,36.62
2018-07-30T11:29:59.266Z,36.19
2018-07-30T11:30:59.301Z,36.53
2018-07-30T11:31:59.340Z,36.74
2018-07-30T11:32:59.378Z,36.73
2018-07-30T11:33:59.412Z,36.97
2018-07-30T11:34:59.500Z,37.57
2018-07-30T11:35:59.487Z,37.53
2018-07-30T11:36:59.526Z,37.36
2018-07-30T11:37:59.556Z,37.39
2018-07-30T11:38:59.594Z,37.36
2018-07-30T11:39:59.633Z,37.26
2018-07-30T11:40:59.670Z,36.99
2018-07-30T11:41:59.705Z,37.39
2018-07-30T11:42:59.754Z,37.71
2018-07-30T11:43:59.778Z,38.22
2018-07-30T11:44:59.817Z,38.24
2018-07-30T11:45:59.854Z,37.09
2018-07-30T11:46:59.892Z,36.90
2018-07-30T11:47:59.926Z,36.88
2018-07-30T11:48:59.965Z,36.96
2018-07-30T11:49:59.999Z,36.43
2018-07-30T11:51:00.037Z,36.28
2018-07-30T11:52:00.079Z,37.02
2018-07-30T11:53:00.169Z,37.37
2018-07-30T11:54:00.171Z,37.65
2018-07-30T11:55:00.185Z,37.37
2018-07-30T11:56:00.226Z,37.48
2018-07-30T11:57:00.264Z,38.09
2018-07-30T11:58:00.297Z,38.03
2018-07-30T11:59:00.337Z,38.13
2018-07-30T12:00:00.372Z,37.65
2018-07-30T12:01:00.482Z,37.86
2018-07-30T12:02:00.449Z,37.49
2018-07-30T12:03:00.485Z,37.91
2018-07-30T12:04:00.519Z,38.18
2018-07-30T12:05:00.557Z,38.58
2018-07-30T12:06:00.595Z,38.74
2018-07-30T12:07:00.631Z,37.94
2018-07-30T12:08:00.673Z,37.80
2018-07-30T12:09:00.705Z,37.33
2018-07-30T12:10:00.742Z,36.53
2018-07-30T12:11:00.782Z,35.57
2018-07-30T12:12:00.818Z,35.28
2018-07-30T12:13:00.857Z,35.01
2018-07-30T12:14:00.893Z,34.54
2018-07-30T12:15:00.927Z,34.39
2018-07-30T12:16:00.964Z,34.40
2018-07-30T12:17:01.004Z,34.43
2018-07-30T12:18:01.041Z,34.56
2018-07-30T12:19:01.075Z,34.63
2018-07-30T12:20:01.112Z,34.54
2018-07-30T12:21:01.157Z,34.69
2018-07-30T12:22:01.185Z,35.43
2018-07-30T12:23:01.221Z,35.77
2018-07-30T12:24:01.257Z,35.94
2018-07-30T12:25:01.294Z,36.49
2018-07-30T12:26:01.329Z,36.92
2018-07-30T12:27:01.367Z,37.12
2018-07-30T12:28:01.403Z,37.75
2018-07-30T12:29:01.437Z,38.31
2018-07-30T12:30:01.529Z,38.36
2018-07-30T12:31:01.511Z,38.74
2018-07-30T12:32:01.548Z,38.89
2018-07-30T12:33:01.592Z,39.19
2018-07-30T12:34:01.621Z,39.42
2018-07-30T12:35:01.657Z,39.88
2018-07-30T12:36:01.698Z,39.25
2018-07-30T12:37:01.733Z,38.27
2018-07-30T12:38:01.774Z,37.48
2018-07-30T12:39:01.805Z,36.73
2018-07-30T12:40:01.839Z,35.68
2018-07-30T12:41:01.878Z,35.38
2018-07-30T12:42:01.914Z,35.34
2018-07-30T12:43:01.949Z,34.93
2018-07-30T12:44:01.989Z,34.87
2018-07-30T12:45:02.068Z,34.67
2018-07-30T12:46:02.054Z,34.39
2018-07-30T12:47:02.094Z,34.36
2018-07-30T12:48:02.127Z,34.24
2018-07-30T12:49:02.168Z,34.21
2018-07-30T12:50:02.560Z,34.39
2018-07-30T12:54:02.344Z,34.54
2018-07-30T12:55:02.377Z,34.83
2018-07-30T12:56:02.417Z,35.02
2018-07-30T12:57:02.450Z,35.42